createdAt,value
2019-01-21T00:01:47.707Z,-0.40
2019-01-21T00:04:15.802Z,-0.40
2019-01-21T00:06:44.043Z,-0.30
2019-01-21T00:09:12.615Z,-0.30
2019-01-21T00:11:40.638Z,-0.40
2019-01-21T00:14:08.189Z,-0.50
2019-01-21T00:16:37.780Z,-0.50
2019-01-21T00:19:05.473Z,-0.60
2019-01-21T00:21:33.525Z,-0.60
2019-01-21T00:24:02.001Z,-0.70
2019-01-21T00:26:30.004Z,-0.80
2019-01-21T00:28:57.975Z,-0.80
2019-01-21T00:31:26.331Z,-0.80
2019-01-21T00:33:55.000Z,-0.80
2019-01-21T00:36:23.280Z,-0.70
2019-01-21T00:38:51.819Z,-0.70
2019-01-21T00:41:19.752Z,-0.60
2019-01-21T00:43:47.856Z,-0.60
2019-01-21T00:46:15.804Z,-0.60
2019-01-21T00:48:44.273Z,-0.60
2019-01-21T00:51:12.751Z,-0.60
2019-01-21T00:53:41.386Z,-0.60
2019-01-21T00:56:09.719Z,-0.60
2019-01-21T00:58:38.292Z,-0.70
2019-01-21T01:01:06.076Z,-0.70
2019-01-21T01:03:34.178Z,-0.80
2019-01-21T01:06:02.560Z,-0.70
2019-01-21T01:08:30.196Z,-0.70
2019-01-21T01:10:58.666Z,-0.70
2019-01-21T01:13:26.932Z,-0.80
2019-01-21T01:15:54.845Z,-0.70
2019-01-21T01:18:22.939Z,-0.80
2019-01-21T01:20:50.954Z,-0.80
2019-01-21T01:23:20.373Z,-0.70
2019-01-21T01:25:48.852Z,-0.80
2019-01-21T01:28:17.010Z,-0.80
2019-01-21T01:30:47.020Z,-0.70
2019-01-21T01:33:15.607Z,-0.70
2019-01-21T01:35:43.608Z,-0.70
2019-01-21T01:38:11.868Z,-0.70
2019-01-21T01:40:40.245Z,-0.70
2019-01-21T01:43:08.322Z,-0.70
2019-01-21T01:45:37.323Z,-0.60
2019-01-21T01:48:05.462Z,-0.60
2019-01-21T01:50:33.536Z,-0.60
2019-01-21T01:53:01.856Z,-0.70
2019-01-21T01:55:30.701Z,-0.70
2019-01-21T01:57:59.693Z,-0.60
2019-01-21T02:00:27.712Z,-0.70
2019-01-21T02:02:56.429Z,-0.80
2019-01-21T02:05:25.980Z,-0.80
2019-01-21T02:07:54.357Z,-0.90
2019-01-21T02:10:22.627Z,-0.90
2019-01-21T02:12:50.587Z,-0.80
2019-01-21T02:15:19.246Z,-0.80
2019-01-21T02:17:52.066Z,-0.90
2019-01-21T02:20:17.652Z,-0.90
2019-01-21T02:22:47.296Z,-0.90
2019-01-21T02:25:15.490Z,-0.90
2019-01-21T02:31:31.032Z,-0.80
2019-01-21T02:34:33.758Z,-0.80
2019-01-21T02:38:01.255Z,-0.80
2019-01-21T02:40:53.047Z,-0.90
2019-01-21T02:43:50.313Z,-1.00
2019-01-21T02:46:52.780Z,-1.00
2019-01-21T02:49:57.113Z,-1.00
2019-01-21T02:52:50.346Z,-1.10
2019-01-21T02:55:33.009Z,-1.00
2019-01-21T02:58:34.338Z,-1.10
2019-01-21T03:01:42.851Z,-1.20
2019-01-21T03:04:48.198Z,-1.20
2019-01-21T03:07:25.687Z,-1.20
2019-01-21T03:10:32.629Z,-1.00
2019-01-21T03:13:20.934Z,-1.10
2019-01-21T03:16:34.375Z,-1.10
2019-01-21T03:19:38.696Z,-1.00
2019-01-21T03:22:46.904Z,-1.00
2019-01-21T03:26:04.031Z,-1.10
2019-01-21T03:29:07.568Z,-1.10
2019-01-21T03:32:12.887Z,-1.20
2019-01-21T03:35:03.544Z,-1.20
2019-01-21T03:38:14.214Z,-1.30
2019-01-21T03:44:02.024Z,-1.30
2019-01-21T03:47:07.174Z,-1.20
2019-01-21T03:50:12.867Z,-1.20
2019-01-21T03:53:20.197Z,-1.40
2019-01-21T03:55:51.037Z,-1.40
2019-01-21T03:59:06.327Z,-1.50
2019-01-21T04:02:17.425Z,-1.50
2019-01-21T04:05:14.771Z,-1.50
2019-01-21T04:08:12.635Z,-1.50
2019-01-21T04:11:17.976Z,-1.60
2019-01-21T04:14:33.023Z,-1.60
2019-01-21T04:17:31.188Z,-1.60
2019-01-21T04:20:27.551Z,-1.70
2019-01-21T04:23:39.379Z,-1.70
2019-01-21T04:26:37.773Z,-1.60
2019-01-21T04:31:59.792Z,-1.60
2019-01-21T04:34:59.731Z,-1.60
2019-01-21T04:38:05.273Z,-1.60
2019-01-21T04:41:24.145Z,-1.60
2019-01-21T04:44:13.788Z,-1.70
2019-01-21T04:47:02.245Z,-1.50
2019-01-21T04:49:46.317Z,-1.50
2019-01-21T04:53:12.735Z,-1.40
2019-01-21T04:56:24.617Z,-1.30
2019-01-21T04:59:25.678Z,-1.40
2019-01-21T05:02:23.166Z,-1.40
2019-01-21T05:05:51.952Z,-1.60
2019-01-21T05:08:58.663Z,-1.60
2019-01-21T05:12:00.111Z,-1.60
2019-01-21T05:15:15.241Z,-1.70
2019-01-21T05:18:23.049Z,-1.70
2019-01-21T05:21:28.475Z,-1.80
2019-01-21T05:24:26.890Z,-1.80
2019-01-21T05:27:42.793Z,-1.80
2019-01-21T05:31:07.609Z,-1.80
2019-01-21T05:33:55.528Z,-1.80
2019-01-21T05:36:33.060Z,-1.90
2019-01-21T05:39:32.931Z,-1.90
2019-01-21T05:42:27.891Z,-1.90
2019-01-21T05:45:29.539Z,-1.90
2019-01-21T05:48:17.347Z,-1.90
2019-01-21T05:51:47.945Z,-1.90
2019-01-21T05:54:53.169Z,-1.90
2019-01-21T05:58:14.336Z,-1.90
2019-01-21T06:01:25.936Z,-1.80
2019-01-21T06:07:25.273Z,-1.90
2019-01-21T06:10:28.130Z,-1.90
2019-01-21T06:13:22.468Z,-1.90
2019-01-21T06:16:31.469Z,-1.80
2019-01-21T06:19:22.378Z,-1.80
2019-01-21T06:22:20.491Z,-1.90
2019-01-21T06:25:27.420Z,-1.90
2019-01-21T06:28:31.349Z,-1.90
2019-01-21T06:31:47.044Z,-1.90
2019-01-21T06:34:55.238Z,-1.90
2019-01-21T06:37:59.661Z,-1.90
2019-01-21T06:41:01.774Z,-2.00
2019-01-21T06:44:14.340Z,-2.00
2019-01-21T06:47:11.804Z,-2.00
2019-01-21T06:50:09.808Z,-2.00
2019-01-21T06:53:19.638Z,-1.90
2019-01-21T06:56:37.679Z,-2.10
2019-01-21T06:59:40.667Z,-2.00
2019-01-21T07:02:36.000Z,-1.90
2019-01-21T07:05:32.743Z,-2.00
2019-01-21T07:08:51.603Z,-2.10
2019-01-21T07:11:41.580Z,-2.00
2019-01-21T07:14:55.739Z,-2.00
2019-01-21T07:18:03.054Z,-2.00
2019-01-21T07:20:50.159Z,-2.00
2019-01-21T07:23:50.388Z,-2.00
2019-01-21T07:26:55.261Z,-2.00
2019-01-21T07:29:38.739Z,-2.10
2019-01-21T07:32:40.526Z,-2.00
2019-01-21T07:35:49.929Z,-1.90
2019-01-21T07:38:43.249Z,-1.90
2019-01-21T07:41:49.080Z,-1.80
2019-01-21T07:44:46.992Z,-1.80
2019-01-21T07:47:34.581Z,-1.80
2019-01-21T07:50:19.500Z,-1.70
2019-01-21T07:53:19.544Z,-1.80
2019-01-21T07:56:46.986Z,-1.80
2019-01-21T07:59:51.175Z,-1.70
2019-01-21T08:02:38.706Z,-1.60
2019-01-21T08:05:46.912Z,-1.60
2019-01-21T08:11:46.447Z,-1.50
2019-01-21T08:17:14.504Z,-1.50
2019-01-21T08:20:22.294Z,-1.40
2019-01-21T08:23:31.421Z,-1.30
2019-01-21T08:26:40.936Z,-1.20
2019-01-21T08:29:37.835Z,-1.20
2019-01-21T08:32:36.234Z,-1.20
2019-01-21T08:35:20.111Z,-1.30
2019-01-21T08:38:18.869Z,-1.20
2019-01-21T08:47:05.071Z,-0.90
2019-01-21T08:50:10.719Z,-0.90
2019-01-21T08:59:06.202Z,-0.70
2019-01-21T09:05:02.864Z,-0.40
2019-01-21T09:10:54.322Z,-0.60
2019-01-21T09:14:01.876Z,-0.40
2019-01-21T09:19:44.655Z,-0.30
2019-01-21T09:22:44.029Z,-0.10
2019-01-21T09:28:29.681Z,-0.10
2019-01-21T09:31:27.803Z,0.10
2019-01-21T09:37:12.136Z,0.80
2019-01-21T09:40:11.237Z,0.80
2019-01-21T09:43:16.520Z,0.70
2019-01-21T09:46:19.924Z,0.90
2019-01-21T09:48:46.817Z,1.20
2019-01-21T09:51:17.602Z,1.10
2019-01-21T09:53:51.623Z,1.30
2019-01-21T09:56:20.745Z,1.40
2019-01-21T09:58:50.391Z,1.60
2019-01-21T10:01:19.438Z,1.80
2019-01-21T10:03:49.319Z,2.20
2019-01-21T10:09:14.312Z,2.70
2019-01-21T10:12:05.515Z,2.80
2019-01-21T10:18:04.983Z,3.00
2019-01-21T10:24:13.821Z,3.50
2019-01-21T10:27:24.714Z,3.80
2019-01-21T10:30:29.471Z,4.30
2019-01-21T10:33:50.537Z,5.20
2019-01-21T10:37:02.380Z,5.70
2019-01-21T10:40:11.060Z,6.00
2019-01-21T10:43:16.317Z,6.40
2019-01-21T10:46:02.590Z,7.00
2019-01-21T10:48:57.050Z,7.30
2019-01-21T10:52:00.183Z,7.60
2019-01-21T10:57:49.339Z,8.30
2019-01-21T11:00:33.469Z,8.10
2019-01-21T11:03:44.914Z,8.10
2019-01-21T11:09:16.169Z,9.20
2019-01-21T11:12:10.692Z,10.30
2019-01-21T11:15:01.985Z,10.30
2019-01-21T11:20:41.822Z,11.30
2019-01-21T11:23:48.318Z,11.70
2019-01-21T11:26:45.551Z,12.40
2019-01-21T11:29:46.739Z,12.50
2019-01-21T11:33:01.898Z,11.80
2019-01-21T11:36:09.516Z,12.20
2019-01-21T11:41:52.491Z,12.90
2019-01-21T11:44:49.640Z,13.40
2019-01-21T11:47:43.867Z,14.20
2019-01-21T11:53:14.548Z,16.10
2019-01-21T11:56:22.268Z,15.80
2019-01-21T11:59:19.932Z,15.70
2019-01-21T12:02:10.888Z,18.10
2019-01-21T12:05:19.228Z,18.50
2019-01-21T12:08:27.585Z,17.10
2019-01-21T12:11:34.814Z,16.90
2019-01-21T12:14:49.185Z,17.20
2019-01-21T12:18:05.733Z,18.30
2019-01-21T12:21:17.412Z,19.00
2019-01-21T12:24:24.190Z,17.00
2019-01-21T12:27:35.219Z,15.70
2019-01-21T12:30:48.390Z,16.60
2019-01-21T12:34:13.877Z,16.30
2019-01-21T12:37:26.275Z,15.70
2019-01-21T12:40:20.295Z,14.10
2019-01-21T12:43:13.075Z,13.70
2019-01-21T12:46:12.612Z,12.30
2019-01-21T12:49:02.748Z,11.20
2019-01-21T12:51:53.672Z,9.90
2019-01-21T12:54:58.020Z,9.20
2019-01-21T12:58:20.008Z,8.70
2019-01-21T13:01:07.223Z,8.80
2019-01-21T13:04:24.603Z,9.30
2019-01-21T13:07:05.831Z,9.40
2019-01-21T13:10:05.849Z,8.70
2019-01-21T13:12:58.300Z,8.60
2019-01-21T13:16:19.714Z,9.20
2019-01-21T13:19:27.876Z,9.70
2019-01-21T13:22:55.480Z,10.90
2019-01-21T13:26:04.779Z,11.10
2019-01-21T13:29:13.198Z,10.20
2019-01-21T13:32:10.105Z,9.50
2019-01-21T13:35:22.237Z,9.10
2019-01-21T13:38:30.223Z,8.80
2019-01-21T13:41:48.929Z,9.00
2019-01-21T13:45:00.900Z,8.70
2019-01-21T13:48:15.587Z,9.40
2019-01-21T13:51:19.873Z,9.00
2019-01-21T13:54:35.487Z,7.90
2019-01-21T13:58:03.036Z,8.00
2019-01-21T14:01:06.149Z,7.40
2019-01-21T14:04:32.223Z,7.10
2019-01-21T14:07:43.718Z,7.50
2019-01-21T14:11:10.099Z,7.40
2019-01-21T14:14:18.325Z,7.20
2019-01-21T14:17:30.211Z,7.00
2019-01-21T14:23:17.955Z,5.90
2019-01-21T14:29:50.104Z,5.40
2019-01-21T14:32:59.968Z,4.90
2019-01-21T14:38:54.141Z,4.30
2019-01-21T14:42:11.626Z,6.80
2019-01-21T14:45:23.211Z,3.90
2019-01-21T14:51:03.732Z,4.50
2019-01-21T14:54:08.352Z,4.20
2019-01-21T15:03:12.577Z,4.10
2019-01-21T15:06:26.464Z,4.00
2019-01-21T15:15:39.104Z,3.50
2019-01-21T15:21:53.421Z,3.20
2019-01-21T15:30:40.490Z,3.30
2019-01-21T15:54:21.498Z,2.30
2019-01-21T16:03:25.429Z,2.60
2019-01-21T16:09:09.733Z,2.50
2019-01-21T16:15:21.730Z,2.40
2019-01-21T16:18:04.999Z,2.30
2019-01-21T16:21:23.615Z,2.40
2019-01-21T16:24:36.742Z,2.30
2019-01-21T16:27:14.814Z,2.20
2019-01-21T16:33:01.056Z,2.10
2019-01-21T16:36:00.101Z,2.00
2019-01-21T16:39:01.459Z,2.10
2019-01-21T16:42:22.163Z,2.00
2019-01-21T16:44:53.513Z,2.00
2019-01-21T16:47:21.560Z,2.00
2019-01-21T16:49:49.477Z,2.00
2019-01-21T16:52:16.881Z,2.00
2019-01-21T16:54:45.196Z,1.70
2019-01-21T16:57:13.859Z,4.20
2019-01-21T16:59:41.869Z,1.70
2019-01-21T17:02:10.440Z,1.70
2019-01-21T17:04:38.592Z,1.80
2019-01-21T17:07:07.317Z,1.80
2019-01-21T17:09:35.464Z,1.70
2019-01-21T17:12:03.734Z,1.60
2019-01-21T17:14:31.981Z,1.60
2019-01-21T17:17:00.798Z,1.50
2019-01-21T17:19:28.950Z,1.40
2019-01-21T17:21:56.809Z,1.40
2019-01-21T17:24:24.726Z,1.40
2019-01-21T17:26:54.253Z,1.30
2019-01-21T17:29:22.788Z,1.50
2019-01-21T17:31:53.089Z,1.40
2019-01-21T17:34:20.834Z,1.30
2019-01-21T17:36:52.315Z,1.20
2019-01-21T17:39:24.263Z,-0.10
2019-01-21T17:41:54.228Z,1.20
2019-01-21T17:46:53.742Z,1.30
2019-01-21T17:49:22.003Z,1.20
2019-01-21T17:51:50.490Z,1.10
2019-01-21T17:54:18.337Z,1.20
2019-01-21T17:56:46.173Z,1.20
2019-01-21T17:59:13.935Z,1.10
2019-01-21T18:01:42.571Z,1.00
2019-01-21T18:06:40.146Z,1.00
2019-01-21T18:11:41.896Z,1.00
2019-01-21T18:16:47.910Z,1.00
2019-01-21T18:19:28.649Z,0.90
2019-01-21T18:21:57.542Z,0.90
2019-01-21T18:24:24.924Z,0.80
2019-01-21T18:26:53.698Z,0.80
2019-01-21T18:29:22.237Z,0.70
2019-01-21T18:31:50.574Z,0.80
2019-01-21T18:34:19.123Z,0.80
2019-01-21T18:39:15.038Z,0.70
2019-01-21T18:41:43.832Z,0.70
2019-01-21T18:44:12.077Z,0.60
2019-01-21T18:46:40.717Z,0.60
2019-01-21T18:49:32.176Z,0.70
2019-01-21T18:52:10.846Z,0.70
2019-01-21T18:54:39.536Z,0.70
2019-01-21T18:57:08.126Z,0.70
2019-01-21T18:59:36.307Z,0.50
2019-01-21T19:02:05.102Z,0.40
2019-01-21T19:04:33.520Z,0.40
2019-01-21T19:07:02.666Z,0.40
2019-01-21T19:09:32.608Z,0.30
2019-01-21T19:12:01.096Z,0.30
2019-01-21T19:14:40.177Z,0.40
2019-01-21T19:17:08.614Z,0.50
2019-01-21T19:19:41.241Z,0.50
2019-01-21T19:22:10.170Z,0.50
2019-01-21T19:27:09.307Z,0.30
2019-01-21T19:29:37.016Z,0.30
2019-01-21T19:32:10.380Z,0.20
2019-01-21T19:34:42.580Z,0.20
2019-01-21T19:37:12.793Z,0.20
2019-01-21T19:39:41.069Z,0.10
2019-01-21T19:44:36.873Z,0.10
2019-01-21T19:47:05.138Z,0.00
2019-01-21T19:49:33.873Z,0.10
2019-01-21T19:52:01.711Z,0.00
2019-01-21T19:56:58.570Z,0.00
2019-01-21T19:59:27.051Z,0.10
2019-01-21T20:01:55.957Z,0.10
2019-01-21T20:04:28.058Z,0.10
2019-01-21T20:06:55.874Z,0.10
2019-01-21T20:09:24.432Z,0.10
2019-01-21T20:11:52.607Z,0.10
2019-01-21T20:14:21.414Z,0.00
2019-01-21T20:16:49.672Z,0.00
2019-01-21T20:19:17.674Z,-0.10
2019-01-21T20:21:48.697Z,-0.20
2019-01-21T20:24:32.282Z,-0.10
2019-01-21T20:27:01.435Z,0.00
2019-01-21T20:32:00.482Z,-0.10
2019-01-21T20:34:30.049Z,-0.10
2019-01-21T20:36:58.456Z,-0.10
2019-01-21T20:42:05.638Z,-0.40
2019-01-21T20:44:35.232Z,-0.40
2019-01-21T20:47:03.398Z,-0.40
2019-01-21T20:49:39.307Z,-0.40
2019-01-21T20:52:13.918Z,-0.20
2019-01-21T20:57:10.549Z,-0.30
2019-01-21T20:59:39.408Z,-0.30
2019-01-21T21:04:39.386Z,-0.20
2019-01-21T21:07:10.090Z,-0.30
2019-01-21T21:09:50.527Z,-0.30
2019-01-21T21:12:18.686Z,-0.30
2019-01-21T21:14:47.119Z,-0.40
2019-01-21T21:17:15.668Z,-0.40
2019-01-21T21:19:44.491Z,-0.30
2019-01-21T21:22:21.164Z,-0.40
2019-01-21T21:24:49.546Z,-0.60
2019-01-21T21:27:45.836Z,-0.50
2019-01-21T21:32:48.943Z,-0.40
2019-01-21T21:35:25.330Z,-0.40
2019-01-21T21:37:57.528Z,-0.40
2019-01-21T21:40:32.443Z,-0.40
2019-01-21T21:43:20.630Z,-0.50
2019-01-21T21:46:11.365Z,-0.50
2019-01-21T21:48:41.725Z,-0.70
2019-01-21T21:51:10.947Z,-0.70
2019-01-21T21:53:39.939Z,-0.80
2019-01-21T21:58:52.865Z,-0.90
2019-01-21T22:01:44.147Z,-0.90
2019-01-21T22:04:40.284Z,-1.00
2019-01-21T22:07:40.377Z,-1.10
2019-01-21T22:10:22.041Z,-1.10
2019-01-21T22:12:52.329Z,-1.10
2019-01-21T22:18:02.554Z,-0.90
2019-01-21T22:20:30.622Z,-1.00
2019-01-21T22:22:58.942Z,-0.80
2019-01-21T22:25:28.656Z,-0.80
2019-01-21T22:28:01.133Z,-0.90
2019-01-21T22:30:32.155Z,-1.00
2019-01-21T22:33:01.049Z,-1.10
2019-01-21T22:35:31.902Z,-1.10
2019-01-21T22:38:02.780Z,-1.20
2019-01-21T22:40:31.830Z,-1.20
2019-01-21T22:43:02.600Z,-1.20
2019-01-21T22:45:31.528Z,-1.30
2019-01-21T22:48:02.649Z,-1.20
2019-01-21T22:50:31.007Z,-1.10
2019-01-21T22:53:00.108Z,-1.00
2019-01-21T22:55:29.713Z,-0.90
2019-01-21T22:58:01.146Z,-1.00
2019-01-21T23:01:13.787Z,-1.00
2019-01-21T23:03:41.789Z,-1.00
2019-01-21T23:06:09.981Z,-1.10
2019-01-21T23:08:39.516Z,-1.10
2019-01-21T23:11:10.572Z,-1.10
2019-01-21T23:13:43.925Z,-1.10
2019-01-21T23:16:12.411Z,-1.10
2019-01-21T23:18:42.136Z,-1.20
2019-01-21T23:21:10.386Z,-1.20
2019-01-21T23:23:40.970Z,-1.20
2019-01-21T23:26:11.587Z,-1.20
2019-01-21T23:28:40.076Z,-1.20
2019-01-21T23:31:08.552Z,-1.20
2019-01-21T23:33:38.141Z,-1.20
2019-01-21T23:36:10.254Z,-1.20
2019-01-21T23:38:39.534Z,-1.20
2019-01-21T23:41:08.214Z,-1.20
2019-01-21T23:43:41.963Z,-1.30
2019-01-21T23:46:10.024Z,-1.40
2019-01-21T23:48:38.305Z,-1.40
2019-01-21T23:53:37.047Z,-1.40
2019-01-21T23:56:05.553Z,-1.40
2019-01-21T23:58:35.908Z,-1.40
